Terminal Aerodrome Forecast
Issued by NWS

Home | Current Version | Previous Version | Text Only | Print | Product List | Glossary On
Versions: 1 2 3 4 5 6 7 8 9 10 11 12 13 14 15 16 17 18 19 20 21 22 23 24 25 26 27 28 29
000
FTUS42 KCAE 281900 AAA
TAFOGB
TAF AMD
KOGB 281922Z 2819/2918 22006KT P6SM SCT012 OVC025
     FM290100 VRB03KT 5SM BR BKN007 OVC015
     FM290700 VRB03KT 3SM BR VCSH OVC007
     FM291000 VRB03KT 2SM -RA BR OVC003=

USA.gov is the U.S. government's official web portal to all federal, state and local government web resources and services.